HAZ9999 ZUCK-ZUCK
Flight info
| Callsign | HAZ9999 |
|---|---|
| Flight time | N/A |
| Altitude | 12800 |
| Route | LOCAL |
| Aircraft | A35K/H-SDE2E3GHIJ3J4J5LM1ORWXY/LB1D1 |
Departure
| Time | 2026-04-28 12:25 |
|---|---|
| Airport | Chongqing Jiangbei International Airport (ZUCK) |
Arrival
| Time | N/A |
|---|---|
| Airport | Chongqing Jiangbei International Airport (ZUCK) |
| Time | Latitude | Longitude | Altitude | Speed | Heading |
|---|---|---|---|---|---|
| 2026-04-28 12:09 | 29.74099 | 106.65955 | 1343 ft | 0 kts | 286° |
| 2026-04-28 12:12 | 29.74099 | 106.65959 | 1343 ft | 3 kts | 286° |
| 2026-04-28 12:12 | 29.74091 | 106.65988 | 1351 ft | 4 kts | 286° |
| 2026-04-28 12:13 | 29.74086 | 106.66012 | 1343 ft | 4 kts | 266° |
| 2026-04-28 12:13 | 29.74094 | 106.66039 | 1346 ft | 4 kts | 234° |
| 2026-04-28 12:13 | 29.74108 | 106.66061 | 1345 ft | 1 kts | 241° |
| 2026-04-28 12:13 | 29.74108 | 106.66062 | 1345 ft | 0 kts | 241° |
| 2026-04-28 12:17 | 29.74108 | 106.66061 | 1345 ft | 0 kts | 241° |
| 2026-04-28 12:17 | 29.74107 | 106.66061 | 1345 ft | 1 kts | 236° |
| 2026-04-28 12:18 | 29.74098 | 106.66055 | 1345 ft | 4 kts | 212° |
| 2026-04-28 12:18 | 29.74056 | 106.66035 | 1346 ft | 10 kts | 203° |
| 2026-04-28 12:18 | 29.73974 | 106.66003 | 1346 ft | 15 kts | 197° |
| 2026-04-28 12:18 | 29.73853 | 106.65960 | 1347 ft | 21 kts | 195° |
| 2026-04-28 12:19 | 29.73780 | 106.65968 | 1347 ft | 4 kts | 130° |
| 2026-04-28 12:19 | 29.73756 | 106.66031 | 1349 ft | 13 kts | 107° |
| 2026-04-28 12:19 | 29.73721 | 106.66166 | 1341 ft | 22 kts | 106° |
| 2026-04-28 12:19 | 29.73669 | 106.66357 | 1334 ft | 29 kts | 107° |
| 2026-04-28 12:20 | 29.73608 | 106.66586 | 1329 ft | 29 kts | 107° |
| 2026-04-28 12:20 | 29.73586 | 106.66657 | 1328 ft | 2 kts | 130° |
| 2026-04-28 12:20 | 29.73535 | 106.66685 | 1328 ft | 12 kts | 180° |
| 2026-04-28 12:20 | 29.73452 | 106.66633 | 1329 ft | 17 kts | 198° |
| 2026-04-28 12:21 | 29.73311 | 106.66588 | 1330 ft | 27 kts | 198° |
| 2026-04-28 12:21 | 29.73182 | 106.66459 | 1333 ft | 24 kts | 228° |
| 2026-04-28 12:21 | 29.73038 | 106.66390 | 1334 ft | 24 kts | 197° |
| 2026-04-28 12:21 | 29.72869 | 106.66331 | 1336 ft | 27 kts | 197° |
| 2026-04-28 12:22 | 29.72679 | 106.66265 | 1339 ft | 30 kts | 196° |
| 2026-04-28 12:22 | 29.72476 | 106.66198 | 1341 ft | 31 kts | 196° |
| 2026-04-28 12:22 | 29.72263 | 106.66122 | 1345 ft | 33 kts | 198° |
| 2026-04-28 12:22 | 29.72039 | 106.66041 | 1344 ft | 34 kts | 197° |
| 2026-04-28 12:23 | 29.71805 | 106.65958 | 1348 ft | 36 kts | 195° |
| 2026-04-28 12:23 | 29.71599 | 106.65890 | 1349 ft | 17 kts | 194° |
| 2026-04-28 12:23 | 29.71512 | 106.65934 | 1349 ft | 14 kts | 127° |
| 2026-04-28 12:23 | 29.71477 | 106.66040 | 1348 ft | 15 kts | 107° |
| 2026-04-28 12:24 | 29.71471 | 106.66144 | 1346 ft | 8 kts | 57° |
| 2026-04-28 12:24 | 29.71505 | 106.66165 | 1348 ft | 4 kts | 17° |
| 2026-04-28 12:24 | 29.71733 | 106.66245 | 1344 ft | 76 kts | 17° |
| 2026-04-28 12:25 | 29.72477 | 106.66502 | 1336 ft | 146 kts | 17° |
| 2026-04-28 12:25 | 29.73551 | 106.66884 | 1885 ft | 159 kts | 16° |
| 2026-04-28 12:25 | 29.74583 | 106.67283 | 2743 ft | 163 kts | 18° |
| 2026-04-28 12:25 | 29.75727 | 106.67764 | 3102 ft | 185 kts | 19° |
| 2026-04-28 12:26 | 29.76931 | 106.68397 | 3556 ft | 208 kts | 25° |
| 2026-04-28 12:26 | 29.78364 | 106.69104 | 3904 ft | 241 kts | 19° |
| 2026-04-28 12:26 | 29.80013 | 106.69680 | 4531 ft | 255 kts | 15° |
| 2026-04-28 12:26 | 29.81753 | 106.70188 | 4863 ft | 260 kts | 15° |
| 2026-04-28 12:27 | 29.83511 | 106.70678 | 4918 ft | 260 kts | 15° |
| 2026-04-28 12:27 | 29.85268 | 106.71190 | 4925 ft | 260 kts | 15° |
| 2026-04-28 12:27 | 29.87019 | 106.71739 | 4922 ft | 261 kts | 17° |
| 2026-04-28 12:27 | 29.88737 | 106.72406 | 4924 ft | 261 kts | 26° |
| 2026-04-28 12:28 | 29.90282 | 106.73468 | 4923 ft | 257 kts | 37° |
| 2026-04-28 12:28 | 29.91677 | 106.74700 | 4922 ft | 255 kts | 41° |
| 2026-04-28 12:28 | 29.93013 | 106.76040 | 4916 ft | 254 kts | 44° |
| 2026-04-28 12:28 | 29.94297 | 106.77416 | 4914 ft | 251 kts | 44° |
| 2026-04-28 12:29 | 29.96832 | 106.80220 | 4889 ft | 254 kts | 45° |
| 2026-04-28 12:29 | 29.98083 | 106.81647 | 4932 ft | 253 kts | 45° |
| 2026-04-28 12:29 | 29.99329 | 106.83090 | 4894 ft | 255 kts | 48° |
| 2026-04-28 12:30 | 30.00299 | 106.84758 | 4928 ft | 253 kts | 65° |
| 2026-04-28 12:30 | 30.00642 | 106.86720 | 4958 ft | 255 kts | 91° |
| 2026-04-28 12:30 | 30.00231 | 106.88699 | 4872 ft | 259 kts | 115° |
| 2026-04-28 12:30 | 29.98991 | 106.90204 | 5077 ft | 270 kts | 143° |
| 2026-04-28 12:31 | 29.97219 | 106.90919 | 4930 ft | 274 kts | 173° |
| 2026-04-28 12:31 | 29.95371 | 106.90411 | 4888 ft | 281 kts | 208° |
| 2026-04-28 12:31 | 29.93866 | 106.88967 | 4901 ft | 283 kts | 225° |
| 2026-04-28 12:31 | 29.92493 | 106.87326 | 4899 ft | 285 kts | 223° |
| 2026-04-28 12:32 | 29.90969 | 106.85862 | 4917 ft | 286 kts | 213° |
| 2026-04-28 12:32 | 29.89261 | 106.84723 | 4918 ft | 284 kts | 204° |
| 2026-04-28 12:32 | 29.87495 | 106.83790 | 4925 ft | 282 kts | 199° |
| 2026-04-28 12:32 | 29.85659 | 106.83041 | 4920 ft | 278 kts | 197° |
| 2026-04-28 12:33 | 29.83810 | 106.82404 | 5025 ft | 276 kts | 194° |
| 2026-04-28 12:33 | 29.81957 | 106.81811 | 5512 ft | 280 kts | 194° |
| 2026-04-28 12:33 | 29.80089 | 106.81211 | 5852 ft | 277 kts | 195° |
| 2026-04-28 12:33 | 29.78236 | 106.80603 | 5919 ft | 277 kts | 195° |
| 2026-04-28 12:34 | 29.76376 | 106.79979 | 5925 ft | 279 kts | 195° |
| 2026-04-28 12:34 | 29.74514 | 106.79345 | 5925 ft | 279 kts | 196° |
| 2026-04-28 12:34 | 29.72654 | 106.78705 | 5926 ft | 279 kts | 196° |
| 2026-04-28 12:34 | 29.70821 | 106.78069 | 5926 ft | 279 kts | 196° |
| 2026-04-28 12:35 | 29.68961 | 106.77421 | 5926 ft | 279 kts | 196° |
| 2026-04-28 12:35 | 29.67101 | 106.76773 | 5923 ft | 279 kts | 196° |
| 2026-04-28 12:35 | 29.65240 | 106.76128 | 5926 ft | 279 kts | 196° |
| 2026-04-28 12:35 | 29.63383 | 106.75486 | 5923 ft | 279 kts | 196° |
| 2026-04-28 12:36 | 29.61523 | 106.74844 | 5925 ft | 279 kts | 196° |
| 2026-04-28 12:36 | 29.59662 | 106.74208 | 5920 ft | 278 kts | 197° |
| 2026-04-28 12:36 | 29.57812 | 106.73568 | 5918 ft | 276 kts | 198° |
| 2026-04-28 12:36 | 29.55974 | 106.72929 | 5923 ft | 276 kts | 198° |
| 2026-04-28 12:37 | 29.54164 | 106.72300 | 5919 ft | 275 kts | 197° |
| 2026-04-28 12:37 | 29.52327 | 106.71663 | 5914 ft | 276 kts | 197° |
| 2026-04-28 12:37 | 29.50493 | 106.71028 | 5916 ft | 275 kts | 197° |
| 2026-04-28 12:37 | 29.48660 | 106.70394 | 5910 ft | 275 kts | 197° |
| 2026-04-28 12:38 | 29.46825 | 106.69758 | 5913 ft | 276 kts | 197° |
| 2026-04-28 12:38 | 29.44966 | 106.69118 | 5912 ft | 280 kts | 196° |
| 2026-04-28 12:38 | 29.43101 | 106.68481 | 5924 ft | 280 kts | 197° |
| 2026-04-28 12:38 | 29.41237 | 106.67844 | 5920 ft | 278 kts | 197° |
| 2026-04-28 12:39 | 29.39382 | 106.67204 | 5908 ft | 278 kts | 197° |
| 2026-04-28 12:39 | 29.37628 | 106.66402 | 5901 ft | 277 kts | 213° |
| 2026-04-28 12:39 | 29.36380 | 106.64777 | 5892 ft | 270 kts | 246° |
| 2026-04-28 12:39 | 29.36114 | 106.62760 | 5739 ft | 250 kts | 281° |
| 2026-04-28 12:40 | 29.36610 | 106.60911 | 5624 ft | 237 kts | 292° |
| 2026-04-28 12:40 | 29.37187 | 106.59184 | 5492 ft | 227 kts | 292° |
| 2026-04-28 12:40 | 29.37748 | 106.57530 | 5365 ft | 217 kts | 297° |
| 2026-04-28 12:40 | 29.38661 | 106.56235 | 5227 ft | 205 kts | 328° |
| 2026-04-28 12:41 | 29.39952 | 106.55831 | 5093 ft | 192 kts | 7° |
| 2026-04-28 12:41 | 29.41226 | 106.56195 | 5098 ft | 186 kts | 18° |
| 2026-04-28 12:41 | 29.42448 | 106.56656 | 5105 ft | 188 kts | 17° |
| 2026-04-28 12:41 | 29.43696 | 106.57101 | 5116 ft | 188 kts | 16° |
| 2026-04-28 12:42 | 29.44947 | 106.57524 | 5112 ft | 188 kts | 16° |
| 2026-04-28 12:42 | 29.46203 | 106.57949 | 5106 ft | 190 kts | 16° |
| 2026-04-28 12:42 | 29.47551 | 106.58406 | 5148 ft | 211 kts | 15° |
| 2026-04-28 12:42 | 29.48988 | 106.58896 | 5148 ft | 219 kts | 17° |
| 2026-04-28 12:43 | 29.50450 | 106.59397 | 5152 ft | 219 kts | 16° |
| 2026-04-28 12:43 | 29.51914 | 106.59897 | 5152 ft | 221 kts | 16° |
| 2026-04-28 12:43 | 29.53390 | 106.60400 | 5139 ft | 221 kts | 16° |
| 2026-04-28 12:43 | 29.54848 | 106.60898 | 4905 ft | 215 kts | 16° |
| 2026-04-28 12:44 | 29.56247 | 106.61376 | 4610 ft | 211 kts | 15° |
| 2026-04-28 12:44 | 29.57644 | 106.61851 | 4294 ft | 207 kts | 16° |
| 2026-04-28 12:44 | 29.59008 | 106.62320 | 4021 ft | 201 kts | 16° |
| 2026-04-28 12:44 | 29.60318 | 106.62767 | 3744 ft | 191 kts | 15° |
| 2026-04-28 12:45 | 29.61523 | 106.63178 | 3506 ft | 178 kts | 15° |
| 2026-04-28 12:45 | 29.62690 | 106.63578 | 3268 ft | 166 kts | 16° |
| 2026-04-28 12:45 | 29.63762 | 106.63945 | 3049 ft | 155 kts | 15° |
| 2026-04-28 12:45 | 29.64761 | 106.64286 | 2852 ft | 145 kts | 15° |
| 2026-04-28 12:46 | 29.65700 | 106.64607 | 2668 ft | 136 kts | 15° |
| 2026-04-28 12:46 | 29.66594 | 106.64913 | 2488 ft | 133 kts | 15° |
| 2026-04-28 12:46 | 29.67468 | 106.65212 | 2322 ft | 133 kts | 15° |
| 2026-04-28 12:46 | 29.68363 | 106.65519 | 2138 ft | 135 kts | 15° |
| 2026-04-28 12:47 | 29.69256 | 106.65823 | 1954 ft | 133 kts | 16° |
| 2026-04-28 12:47 | 29.70136 | 106.66133 | 1695 ft | 132 kts | 17° |
| 2026-04-28 12:47 | 29.71006 | 106.66434 | 1594 ft | 134 kts | 15° |
| 2026-04-28 12:47 | 29.71910 | 106.66740 | 1426 ft | 134 kts | 14° |
| 2026-04-28 12:48 | 29.72780 | 106.67025 | 1349 ft | 126 kts | 16° |
| 2026-04-28 12:48 | 29.73745 | 106.67355 | 1588 ft | 171 kts | 15° |
| 2026-04-28 12:48 | 29.74917 | 106.67755 | 2419 ft | 167 kts | 15° |
| 2026-04-28 12:48 | 29.76005 | 106.68133 | 3024 ft | 170 kts | 16° |
| 2026-04-28 12:49 | 29.77161 | 106.68639 | 3209 ft | 189 kts | 30° |
| 2026-04-28 12:49 | 29.78099 | 106.69786 | 3478 ft | 207 kts | 58° |
| 2026-04-28 12:49 | 29.78700 | 106.71361 | 3845 ft | 224 kts | 66° |
| 2026-04-28 12:49 | 29.79341 | 106.73078 | 4364 ft | 241 kts | 64° |
| 2026-04-28 12:50 | 29.80093 | 106.74868 | 5122 ft | 254 kts | 63° |
| 2026-04-28 12:50 | 29.80987 | 106.76661 | 5727 ft | 266 kts | 52° |
| 2026-04-28 12:50 | 29.82360 | 106.78219 | 6018 ft | 290 kts | 43° |
| 2026-04-28 12:50 | 29.83539 | 106.80185 | 6292 ft | 311 kts | 66° |
| 2026-04-28 12:51 | 29.84123 | 106.82633 | 6616 ft | 328 kts | 82° |
| 2026-04-28 12:51 | 29.84218 | 106.85304 | 6939 ft | 344 kts | 92° |
| 2026-04-28 12:51 | 29.83726 | 106.88059 | 7177 ft | 361 kts | 111° |
| 2026-04-28 12:51 | 29.82318 | 106.90499 | 7401 ft | 376 kts | 134° |
| 2026-04-28 12:52 | 29.80147 | 106.92230 | 7595 ft | 379 kts | 155° |
| 2026-04-28 12:52 | 29.77560 | 106.92950 | 7705 ft | 385 kts | 176° |
| 2026-04-28 12:52 | 29.74904 | 106.92560 | 7738 ft | 388 kts | 198° |
| 2026-04-28 12:52 | 29.72540 | 106.91101 | 7796 ft | 390 kts | 219° |
| 2026-04-28 12:53 | 29.70542 | 106.89017 | 8212 ft | 386 kts | 221° |
| 2026-04-28 12:53 | 29.68401 | 106.87219 | 9199 ft | 376 kts | 212° |
| 2026-04-28 12:53 | 29.66275 | 106.85731 | 10121 ft | 341 kts | 211° |
| 2026-04-28 12:53 | 29.64285 | 106.84394 | 10698 ft | 333 kts | 211° |
| 2026-04-28 12:54 | 29.62193 | 106.83007 | 10789 ft | 363 kts | 210° |
| 2026-04-28 12:54 | 29.59927 | 106.81529 | 10751 ft | 382 kts | 210° |
| 2026-04-28 12:54 | 29.57598 | 106.80024 | 10637 ft | 385 kts | 210° |
| 2026-04-28 12:54 | 29.55270 | 106.78522 | 10422 ft | 383 kts | 210° |
| 2026-04-28 12:55 | 29.52952 | 106.77027 | 10180 ft | 381 kts | 210° |
| 2026-04-28 12:55 | 29.50641 | 106.75540 | 9939 ft | 379 kts | 210° |
| 2026-04-28 12:55 | 29.48391 | 106.74093 | 9701 ft | 362 kts | 210° |
| 2026-04-28 12:55 | 29.46268 | 106.72732 | 9441 ft | 344 kts | 210° |
| 2026-04-28 12:56 | 29.44263 | 106.71447 | 9184 ft | 321 kts | 210° |
| 2026-04-28 12:56 | 29.42361 | 106.70224 | 9045 ft | 306 kts | 210° |
| 2026-04-28 12:56 | 29.40546 | 106.69055 | 8904 ft | 292 kts | 210° |
| 2026-04-28 12:56 | 29.38814 | 106.67941 | 8766 ft | 279 kts | 210° |
| 2026-04-28 12:57 | 29.37222 | 106.66788 | 8619 ft | 266 kts | 221° |
| 2026-04-28 12:57 | 29.36251 | 106.65072 | 8425 ft | 251 kts | 258° |
| 2026-04-28 12:57 | 29.36251 | 106.63162 | 8307 ft | 235 kts | 285° |
| 2026-04-28 12:57 | 29.36693 | 106.61403 | 8122 ft | 226 kts | 290° |
| 2026-04-28 12:58 | 29.37172 | 106.59719 | 7909 ft | 224 kts | 290° |
| 2026-04-28 12:58 | 29.37647 | 106.58047 | 7742 ft | 216 kts | 290° |
| 2026-04-28 12:58 | 29.38410 | 106.56604 | 7645 ft | 212 kts | 322° |
| 2026-04-28 12:58 | 29.38825 | 106.56301 | 7641 ft | 211 kts | 336° |
| 2026-04-28 12:59 | 29.40258 | 106.56100 | 7617 ft | 208 kts | 6° |
| 2026-04-28 12:59 | 29.41531 | 106.56363 | 7560 ft | 200 kts | 13° |